Time;durP1;ratioP1;P1;durP2;ratioP2;P2;SDS_P1;SDS_P2;PMS_P1;PMS_P2;Temp;Humidity;BMP_temperature;BMP_pressure;BME280_temperature;BME280_humidity;BME280_pressure;Samples;Min_cycle;Max_cycle;Signal;HPM_P1;HPM_P2
2022/05/28 00:00:11;;;;;;;;;8.00;8.00;;;;;15.81;58.11;102166.66;5085366;27;45206;-70
2022/05/28 00:02:38;;;;;;;;;10.00;7.00;;;;;15.78;58.83;102165.06;5082687;28;45644;-70
2022/05/28 00:05:04;;;;;;;;;7.33;5.67;;;;;15.73;59.10;102167.38;5084343;27;45408;-70
2022/05/28 00:07:30;;;;;;;;;8.00;8.00;;;;;15.65;58.84;102153.56;5081214;27;45475;-70
2022/05/28 00:09:55;;;;;;;;;10.33;7.67;;;;;15.68;58.79;102152.41;5072818;27;45609;-70
2022/05/28 00:12:29;;;;;;;;;7.33;7.33;;;;;15.67;59.16;102151.53;5073759;28;45702;-70
2022/05/28 00:14:55;;;;;;;;;8.33;8.00;;;;;15.60;59.26;102155.88;5070672;28;45382;-72
2022/05/28 00:17:21;;;;;;;;;9.67;7.67;;;;;15.48;59.39;102136.00;5078800;28;45471;-70
2022/05/28 00:19:46;;;;;;;;;8.00;6.33;;;;;15.56;59.51;102144.34;5100436;27;45964;-70
2022/05/28 00:22:11;;;;;;;;;7.00;7.00;;;;;15.54;59.55;102145.53;5082047;28;45416;-70
2022/05/28 00:24:37;;;;;;;;;10.00;8.33;;;;;15.41;60.37;102134.84;5084159;27;45334;-69
2022/05/28 00:27:03;;;;;;;;;10.00;10.00;;;;;15.36;60.76;102144.47;5080812;27;45452;-69
2022/05/28 00:29:28;;;;;;;;;9.33;7.00;;;;;15.32;60.50;102143.06;5084581;27;45464;-69
2022/05/28 00:31:54;;;;;;;;;13.33;8.33;;;;;15.31;60.65;102150.41;5081608;28;46150;-69
2022/05/28 00:34:21;;;;;;;;;11.00;10.00;;;;;15.21;60.90;102141.31;5084091;27;45439;-69
2022/05/28 00:36:46;;;;;;;;;8.33;6.00;;;;;15.18;60.90;102141.63;5081214;28;45423;-69
2022/05/28 00:39:12;;;;;;;;;6.67;6.00;;;;;15.18;60.56;102139.75;5099347;27;45489;-69
2022/05/28 00:41:37;;;;;;;;;5.67;5.67;;;;;15.15;60.38;102141.91;5081665;28;45365;-69
2022/05/28 00:44:05;;;;;;;;;7.33;7.00;;;;;15.18;60.10;102139.75;5074874;28;45336;-69
2022/05/28 00:46:30;;;;;;;;;9.33;6.00;;;;;15.18;60.87;102138.91;5079363;28;45512;-69
2022/05/28 00:49:00;;;;;;;;;10.67;8.67;;;;;15.19;60.25;102141.47;5079357;27;45667;-69
2022/05/28 00:51:29;;;;;;;;;10.00;5.67;;;;;15.19;60.22;102146.09;5077142;27;45411;-69
2022/05/28 00:54:00;;;;;;;;;7.00;7.00;;;;;15.19;60.19;102135.16;5074249;28;45405;-68
2022/05/28 00:56:27;;;;;;;;;11.00;10.00;;;;;15.16;60.60;102136.28;5075946;28;45271;-69
2022/05/28 00:58:53;;;;;;;;;12.67;10.00;;;;;15.14;60.93;102129.22;5099486;27;45419;-69
2022/05/28 01:01:25;;;;;;;;;10.33;9.33;;;;;15.16;60.28;102136.28;5073489;27;45265;-69
2022/05/28 01:04:00;;;;;;;;;9.33;8.00;;;;;15.17;61.12;102135.28;5096860;27;45877;-69
2022/05/28 01:06:44;;;;;;;;;12.00;8.00;;;;;15.11;61.10;102132.28;5098686;27;45530;-68
2022/05/28 01:09:24;;;;;;;;;12.33;8.00;;;;;15.03;60.34;102129.38;5078341;28;45329;-69
2022/05/28 01:11:58;;;;;;;;;8.00;8.00;;;;;15.05;60.83;102132.84;5079380;28;47969;-69
2022/05/28 01:14:31;;;;;;;;;11.67;7.00;;;;;15.00;60.90;102129.66;5092202;27;45376;-70
2022/05/28 01:17:15;;;;;;;;;7.00;6.00;;;;;15.04;61.00;102136.59;5078510;28;45819;-69
2022/05/28 01:20:11;;;;;;;;;11.00;8.00;;;;;14.97;60.79;102129.97;5076392;28;45286;-70
2022/05/28 01:23:02;;;;;;;;;8.33;8.33;;;;;14.93;61.56;102131.25;5081548;28;45575;-69
2022/05/28 01:26:12;;;;;;;;;10.33;9.00;;;;;14.86;61.57;102117.28;5083280;28;45407;-69
2022/05/28 01:28:43;;;;;;;;;9.33;9.33;;;;;14.80;61.66;102115.09;5078710;27;45420;-69
2022/05/28 01:31:11;;;;;;;;;10.33;8.00;;;;;14.75;61.70;102112.81;5082426;27;45501;-69
2022/05/28 01:33:41;;;;;;;;;8.00;6.67;;;;;14.72;61.79;102106.75;5081467;27;45399;-68
2022/05/28 01:36:09;;;;;;;;;7.00;6.00;;;;;14.74;62.20;102110.22;5083304;27;45378;-69
2022/05/28 01:38:37;;;;;;;;;9.00;8.00;;;;;14.70;62.13;102106.00;5082149;27;45341;-69
2022/05/28 01:41:06;;;;;;;;;12.33;8.67;;;;;14.72;62.45;102120.41;5083337;27;45374;-69
2022/05/28 01:43:37;;;;;;;;;6.33;6.33;;;;;14.69;61.96;102110.63;5078855;27;45498;-69
2022/05/28 01:46:05;;;;;;;;;10.33;9.00;;;;;14.69;62.72;102110.63;5080273;27;45406;-69
2022/05/28 01:48:30;;;;;;;;;14.67;12.33;;;;;14.63;62.66;102104.84;5077439;28;45499;-69
2022/05/28 01:50:58;;;;;;;;;11.00;7.33;;;;;14.58;62.84;102102.56;5078657;28;45372;-69
2022/05/28 01:56:10;;;;;;;;;8.00;7.67;;;;;14.60;62.67;102099.69;5076267;28;45300;-68
2022/05/28 01:58:36;;;;;;;;;9.00;6.00;;;;;14.60;62.41;102102.41;5073937;27;45549;-69
2022/05/28 02:01:04;;;;;;;;;4.67;4.00;;;;;14.64;62.20;102110.19;5074556;27;45366;-69
2022/05/28 02:03:32;;;;;;;;;8.00;7.33;;;;;14.59;62.69;102107.03;5081452;27;45558;-69
2022/05/28 02:05:58;;;;;;;;;11.67;10.33;;;;;14.54;63.37;102094.78;5079525;28;45293;-69
2022/05/28 02:08:24;;;;;;;;;9.33;8.00;;;;;14.54;63.27;102111.19;5074749;27;45385;-69
2022/05/28 02:11:05;;;;;;;;;8.33;6.67;;;;;14.40;63.42;102087.81;5079828;27;45325;-69
2022/05/28 02:13:41;;;;;;;;;10.33;10.33;;;;;14.41;63.84;102092.28;5077579;27;45668;-69
2022/05/28 02:16:15;;;;;;;;;10.33;10.00;;;;;14.41;63.87;102092.28;5079040;28;45320;-70
2022/05/28 02:18:56;;;;;;;;;10.33;9.00;;;;;14.39;63.47;102095.16;5081617;28;45406;-70
2022/05/28 02:21:47;;;;;;;;;9.67;8.00;;;;;14.40;63.64;102088.69;5098058;27;45240;-69
2022/05/28 02:24:37;;;;;;;;;13.67;9.33;;;;;14.39;63.43;102088.84;5082412;27;46280;-69
2022/05/28 02:27:10;;;;;;;;;12.00;8.67;;;;;14.39;63.67;102091.59;5063292;28;45605;-69
2022/05/28 02:29:36;;;;;;;;;11.00;9.00;;;;;14.35;64.03;102095.56;5082534;27;45415;-69
2022/05/28 02:32:13;;;;;;;;;12.67;9.33;;;;;14.34;64.26;102088.34;5081644;27;45358;-69
2022/05/28 02:34:38;;;;;;;;;10.33;10.33;;;;;14.28;63.89;102077.97;5082299;28;46275;-69
2022/05/28 02:37:03;;;;;;;;;17.33;10.67;;;;;14.24;64.75;102087.50;5078630;28;45859;-69
2022/05/28 02:39:29;;;;;;;;;10.33;10.00;;;;;14.21;65.20;102074.09;5081311;28;45518;-68
2022/05/28 02:41:56;;;;;;;;;13.00;11.33;;;;;14.22;65.09;102081.28;5096568;27;45592;-68
2022/05/28 02:44:23;;;;;;;;;11.00;9.67;;;;;14.18;65.20;102074.34;5075031;27;46767;-69
2022/05/28 02:46:48;;;;;;;;;12.00;10.33;;;;;14.06;65.58;102062.69;5078516;28;45399;-69
2022/05/28 02:49:14;;;;;;;;;10.67;9.33;;;;;14.09;65.13;102072.47;5077635;27;45407;-69
2022/05/28 02:51:39;;;;;;;;;10.33;9.00;;;;;14.02;64.98;102053.03;5077149;28;45356;-68
2022/05/28 02:54:04;;;;;;;;;9.67;9.67;;;;;14.10;65.19;102064.13;5074615;28;47348;-69
2022/05/28 02:56:30;;;;;;;;;12.33;9.00;;;;;14.10;65.58;102061.38;5074927;27;45160;-69
2022/05/28 02:58:55;;;;;;;;;13.00;9.00;;;;;14.03;65.24;102069.28;5073976;27;45264;-69
2022/05/28 03:01:29;;;;;;;;;10.67;9.33;;;;;14.06;65.51;102067.28;5072660;27;45262;-68
2022/05/28 03:03:55;;;;;;;;;13.00;11.00;;;;;14.05;65.32;102069.13;5081254;28;45381;-68
2022/05/28 03:06:21;;;;;;;;;10.00;10.00;;;;;14.02;65.41;102067.56;5081524;28;45227;-69
2022/05/28 03:08:46;;;;;;;;;10.67;9.33;;;;;14.09;65.32;102069.75;5077637;27;45378;-69
2022/05/28 03:11:12;;;;;;;;;10.67;9.67;;;;;14.06;65.22;102070.00;5074869;28;45321;-69
2022/05/28 03:13:38;;;;;;;;;9.67;7.67;;;;;14.02;65.38;102067.56;5075953;27;45575;-69
2022/05/28 03:16:04;;;;;;;;;8.67;8.67;;;;;13.99;65.33;102062.38;5078000;28;45328;-69
2022/05/28 03:18:29;;;;;;;;;11.00;10.00;;;;;13.98;65.45;102070.69;5075766;28;45473;-69
2022/05/28 03:20:55;;;;;;;;;11.33;9.67;;;;;13.96;65.61;102076.28;5081961;28;45431;-69
2022/05/28 03:23:20;;;;;;;;;13.67;12.33;;;;;13.94;65.69;102061.94;5078973;27;46442;-69
2022/05/28 03:25:45;;;;;;;;;6.00;5.00;;;;;13.91;66.30;102058.59;5081922;28;45341;-69
2022/05/28 03:28:11;;;;;;;;;12.67;10.33;;;;;13.85;65.71;102048.22;5078542;27;45383;-69
2022/05/28 03:30:36;;;;;;;;;15.67;12.33;;;;;13.90;65.97;102062.31;5080982;28;45573;-69
2022/05/28 03:33:02;;;;;;;;;13.00;12.00;;;;;13.84;66.69;102068.34;5079325;28;48336;-69
2022/05/28 03:35:28;;;;;;;;;12.00;12.00;;;;;13.82;66.51;102065.75;5081548;28;45636;-69
2022/05/28 03:37:53;;;;;;;;;12.33;12.33;;;;;13.81;66.26;102066.75;5080659;28;45364;-69
2022/05/28 03:40:18;;;;;;;;;10.33;6.67;;;;;13.79;66.37;102070.63;5074028;28;45640;-69
2022/05/28 03:42:44;;;;;;;;;12.00;10.33;;;;;13.79;66.16;102071.50;5074905;28;46753;-70
2022/05/28 03:45:10;;;;;;;;;14.00;11.33;;;;;13.76;66.88;102074.50;5078662;28;45300;-69
2022/05/28 03:47:35;;;;;;;;;13.00;10.00;;;;;13.72;66.58;102075.78;5077015;28;45490;-69
2022/05/28 03:50:02;;;;;;;;;8.67;8.67;;;;;13.72;66.73;102075.78;5074800;28;45325;-69
2022/05/28 03:52:27;;;;;;;;;13.00;11.33;;;;;13.79;66.23;102081.56;5083209;27;46435;-69
2022/05/28 03:54:53;;;;;;;;;11.67;11.67;;;;;13.80;66.29;102089.63;5071105;28;45258;-69
2022/05/28 03:57:25;;;;;;;;;11.00;10.33;;;;;13.64;67.00;102083.78;5081086;28;45455;-69
2022/05/28 03:59:51;;;;;;;;;14.00;11.67;;;;;13.52;67.47;102090.31;5100333;27;45426;-69
2022/05/28 04:02:16;;;;;;;;;13.67;13.67;;;;;13.48;68.03;102097.06;5078050;27;45320;-69
2022/05/28 04:04:41;;;;;;;;;12.67;12.67;;;;;13.46;67.98;102096.31;5082703;28;45239;-69
2022/05/28 04:07:10;;;;;;;;;10.33;6.00;;;;;13.44;67.86;102101.06;5083950;27;45353;-69
2022/05/28 04:09:35;;;;;;;;;9.33;9.33;;;;;13.40;68.03;102094.13;5084465;27;45567;-69
2022/05/28 04:12:00;;;;;;;;;15.67;12.00;;;;;13.37;67.89;102108.06;5076731;27;45559;-69
2022/05/28 04:14:26;;;;;;;;;11.33;11.00;;;;;13.22;68.48;102099.34;5080283;28;45420;-69
2022/05/28 04:16:51;;;;;;;;;17.67;12.00;;;;;13.17;68.87;102107.03;5082635;27;45975;-69
2022/05/28 04:19:16;;;;;;;;;13.33;9.00;;;;;13.08;69.47;102107.78;5084375;27;45504;-69
2022/05/28 04:21:42;;;;;;;;;13.33;11.67;;;;;13.14;69.54;102104.59;5083483;27;45442;-68
2022/05/28 04:24:07;;;;;;;;;15.67;13.67;;;;;13.21;68.81;102105.78;5082174;28;45508;-69
2022/05/28 04:26:33;;;;;;;;;17.67;13.00;;;;;13.23;69.06;102101.91;5083883;27;45328;-68
2022/05/28 04:28:59;;;;;;;;;11.67;11.67;;;;;13.25;68.87;102105.38;5084523;27;45579;-68
2022/05/28 04:31:24;;;;;;;;;12.33;11.67;;;;;13.20;68.91;102101.31;5071280;28;45700;-68
2022/05/28 04:33:50;;;;;;;;;16.67;13.67;;;;;13.23;68.81;102101.91;5081808;27;45536;-69
2022/05/28 04:36:16;;;;;;;;;13.67;12.00;;;;;13.25;68.82;102099.94;5082226;27;45593;-69
2022/05/28 04:38:42;;;;;;;;;12.67;12.67;;;;;13.39;68.79;102100.59;5081603;28;45415;-69
2022/05/28 04:41:08;;;;;;;;;12.67;11.00;;;;;13.51;68.04;102105.00;5081859;27;45575;-69
2022/05/28 04:43:33;;;;;;;;;8.00;7.00;;;;;13.44;67.76;102098.34;5080226;27;45456;-69
2022/05/28 04:45:59;;;;;;;;;16.67;13.00;;;;;13.66;67.33;102097.31;5082059;27;45233;-69
2022/05/28 04:48:25;;;;;;;;;15.33;12.33;;;;;13.74;67.12;102101.06;5080598;27;45329;-70
2022/05/28 04:50:50;;;;;;;;;10.67;10.00;;;;;13.80;66.51;102095.09;5080613;27;45486;-69
2022/05/28 04:53:15;;;;;;;;;11.00;9.33;;;;;13.81;66.33;102096.78;5071356;28;45361;-69
2022/05/28 04:55:41;;;;;;;;;9.00;9.00;;;;;13.80;66.02;102100.56;5077091;28;45445;-69
2022/05/28 04:58:06;;;;;;;;;14.33;13.00;;;;;13.94;66.45;102104.78;5079268;28;45522;-69
2022/05/28 05:00:33;;;;;;;;;12.00;11.00;;;;;14.88;63.35;102103.44;5083888;27;45584;-69
2022/05/28 05:02:58;;;;;;;;;12.33;10.67;;;;;14.98;62.07;102104.28;5078666;28;45413;-69
2022/05/28 05:05:24;;;;;;;;;13.00;11.00;;;;;14.75;62.63;102095.53;5082537;28;45279;-71
2022/05/28 05:07:49;;;;;;;;;12.67;11.33;;;;;14.60;63.29;102110.63;5083459;28;45622;-70
2022/05/28 05:10:14;;;;;;;;;13.00;11.33;;;;;14.53;63.68;102099.38;5083508;27;46442;-69
2022/05/28 05:12:40;;;;;;;;;10.00;10.00;;;;;14.54;63.46;102112.03;5081197;28;45250;-71
2022/05/28 05:15:06;;;;;;;;;14.67;12.67;;;;;14.52;63.92;102108.59;5081631;27;45319;-69
2022/05/28 05:17:31;;;;;;;;;10.33;9.00;;;;;14.59;63.44;102108.88;5082852;27;45524;-70
2022/05/28 05:19:57;;;;;;;;;12.00;11.00;;;;;14.42;63.84;102099.50;5079156;27;45962;-69
2022/05/28 05:22:22;;;;;;;;;15.33;12.33;;;;;14.39;64.30;102103.34;5081567;27;45150;-69
2022/05/28 05:24:47;;;;;;;;;11.00;11.00;;;;;14.32;64.35;102112.22;5099168;27;45276;-69
2022/05/28 05:27:13;;;;;;;;;10.67;8.67;;;;;14.31;64.21;102114.13;5083085;27;45571;-69
2022/05/28 05:29:39;;;;;;;;;11.00;11.00;;;;;14.27;64.14;102111.78;5083180;28;45362;-69
2022/05/28 05:32:06;;;;;;;;;16.00;14.00;;;;;14.26;64.56;102112.78;5073930;27;45491;-70
2022/05/28 05:34:31;;;;;;;;;11.00;11.00;;;;;14.40;65.13;102109.69;5083357;27;45363;-70
2022/05/28 05:36:57;;;;;;;;;11.33;10.67;;;;;14.49;63.95;102106.13;5082382;27;45316;-69
2022/05/28 05:39:22;;;;;;;;;11.33;10.00;;;;;14.58;64.28;102108.03;5083200;27;45663;-69
2022/05/28 05:41:47;;;;;;;;;14.00;9.33;;;;;14.61;63.74;102096.78;5082430;27;45471;-69
2022/05/28 05:44:13;;;;;;;;;16.00;15.00;;;;;14.61;63.28;102096.78;5082896;28;45322;-69
2022/05/28 05:46:41;;;;;;;;;12.67;11.00;;;;;14.72;63.34;102104.00;5098119;27;45381;-69
2022/05/28 05:49:07;;;;;;;;;10.67;9.00;;;;;14.86;63.06;102110.94;5082692;27;46154;-69
2022/05/28 05:51:34;;;;;;;;;17.67;12.67;;;;;14.78;63.31;102114.38;5077371;27;45297;-69
2022/05/28 05:54:00;;;;;;;;;13.33;13.33;;;;;14.92;63.14;102100.28;5073805;28;45329;-69
2022/05/28 05:56:25;;;;;;;;;12.33;11.33;;;;;15.10;62.00;102097.69;5083146;27;45365;-69
2022/05/28 05:58:50;;;;;;;;;20.33;13.67;;;;;15.37;61.87;102113.34;5074470;27;46427;-69
2022/05/28 06:01:16;;;;;;;;;11.00;10.67;;;;;15.52;61.41;102111.88;5082035;27;45311;-69
2022/05/28 06:03:44;;;;;;;;;14.00;12.00;;;;;15.49;61.06;102118.50;5082057;27;45540;-69
2022/05/28 06:06:13;;;;;;;;;12.67;10.33;;;;;15.44;61.36;102118.09;5072628;27;45432;-69
2022/05/28 06:08:38;;;;;;;;;16.00;12.67;;;;;15.51;61.17;102121.13;5077934;27;46005;-69
2022/05/28 06:11:04;;;;;;;;;14.33;11.00;;;;;15.67;60.87;102123.28;5061518;28;45340;-69
2022/05/28 06:13:30;;;;;;;;;10.33;10.33;;;;;15.76;60.67;102127.88;5079998;28;45235;-69
2022/05/28 06:15:56;;;;;;;;;12.00;12.00;;;;;15.82;60.41;102119.06;5083020;27;45565;-69
2022/05/28 06:18:22;;;;;;;;;14.67;12.00;;;;;15.89;60.42;102111.97;5079410;27;45461;-69
2022/05/28 06:20:49;;;;;;;;;12.33;11.00;;;;;15.96;60.43;102119.44;5081743;28;45357;-69
2022/05/28 06:23:18;;;;;;;;;12.00;9.67;;;;;16.08;59.74;102111.88;5080547;27;45235;-69
2022/05/28 06:25:44;;;;;;;;;7.00;3.00;;;;;16.16;59.72;102114.72;5081795;28;45247;-70
2022/05/28 06:28:10;;;;;;;;;9.33;7.33;;;;;16.15;59.58;102113.00;5079805;27;46185;-70
2022/05/28 06:30:35;;;;;;;;;19.67;14.00;;;;;16.11;59.44;102108.84;5079578;28;45461;-71
2022/05/28 06:33:01;;;;;;;;;15.00;12.67;;;;;15.89;60.81;102111.97;5080098;27;45377;-70
2022/05/28 06:35:28;;;;;;;;;14.33;11.33;;;;;16.08;60.82;102121.97;5077689;28;45338;-70
2022/05/28 06:37:54;;;;;;;;;9.00;9.00;;;;;16.21;60.91;102103.31;5073071;28;46780;-69
2022/05/28 06:40:19;;;;;;;;;11.67;10.00;;;;;16.40;59.82;102111.44;5077039;28;45748;-69
2022/05/28 06:42:46;;;;;;;;;10.67;8.67;;;;;16.49;60.03;102115.13;5079277;27;45348;-69
2022/05/28 06:45:14;;;;;;;;;19.67;15.67;;;;;16.35;59.95;102111.91;5073132;28;45462;-69
2022/05/28 06:47:43;;;;;;;;;21.33;14.67;;;;;16.31;59.95;102115.94;5074503;28;45452;-70
2022/05/28 06:52:53;;;;;;;;;9.33;8.33;;;;;16.18;61.08;102112.69;5079398;28;45289;-70
2022/05/28 06:55:18;;;;;;;;;14.00;13.00;;;;;16.45;60.77;102119.19;5078107;28;45578;-69
2022/05/28 06:57:43;;;;;;;;;9.67;9.67;;;;;16.44;60.37;102106.50;5079506;28;46259;-70
2022/05/28 07:00:09;;;;;;;;;16.33;14.33;;;;;16.59;59.74;102104.94;5077231;28;45397;-70
2022/05/28 07:02:34;;;;;;;;;18.33;18.33;;;;;16.64;59.66;102111.75;5090963;27;45335;-70
2022/05/28 07:05:00;;;;;;;;;6.00;5.33;;;;;16.38;60.49;102116.19;5073083;27;45310;-70
2022/05/28 07:07:25;;;;;;;;;16.33;12.33;;;;;16.49;60.32;102106.91;5077514;28;46357;-70
2022/05/28 07:09:50;;;;;;;;;11.00;9.67;;;;;16.52;60.19;102109.31;5077606;28;45331;-70
2022/05/28 07:12:15;;;;;;;;;11.67;10.00;;;;;16.61;60.10;102102.94;5079206;27;45384;-70
2022/05/28 07:14:41;;;;;;;;;12.33;12.33;;;;;16.79;59.62;102106.59;5078367;28;45559;-70
2022/05/28 07:17:06;;;;;;;;;17.00;14.67;;;;;16.71;59.37;102103.75;5076420;27;46495;-70
2022/05/28 07:19:32;;;;;;;;;16.67;13.33;;;;;16.90;58.86;102102.72;5082573;27;45294;-70
2022/05/28 07:21:57;;;;;;;;;15.33;12.00;;;;;16.92;59.60;102100.72;5079098;28;45227;-70
2022/05/28 07:24:22;;;;;;;;;21.33;13.67;;;;;17.08;58.76;102101.72;5084963;27;45171;-70
2022/05/28 07:26:52;;;;;;;;;13.33;11.67;;;;;16.96;59.16;102100.22;5083527;27;46751;-70
2022/05/28 07:29:18;;;;;;;;;13.00;12.33;;;;;17.15;58.96;102090.09;5080846;28;45396;-70
2022/05/28 07:31:43;;;;;;;;;16.00;14.00;;;;;17.20;58.86;102085.00;5084225;27;45286;-70
2022/05/28 07:34:09;;;;;;;;;15.33;13.00;;;;;17.44;57.39;102091.53;5085233;27;45604;-70
2022/05/28 07:36:35;;;;;;;;;12.67;12.00;;;;;17.36;57.13;102087.88;5099237;27;47980;-70
2022/05/28 07:39:01;;;;;;;;;17.33;15.00;;;;;17.54;56.68;102085.94;5082425;27;45343;-70
2022/05/28 07:41:27;;;;;;;;;16.33;12.67;;;;;17.84;56.28;102090.97;5096704;27;45459;-70
2022/05/28 07:43:53;;;;;;;;;11.33;11.33;;;;;18.07;55.24;102077.50;5078975;28;45283;-70
2022/05/28 07:46:22;;;;;;;;;12.33;12.33;;;;;18.08;55.29;102083.88;5079582;27;46712;-70
2022/05/28 07:48:48;;;;;;;;;13.33;13.33;;;;;18.27;54.57;102087.22;5077984;28;45756;-70
2022/05/28 07:51:14;;;;;;;;;13.33;12.00;;;;;18.36;53.73;102087.25;5078688;27;45362;-70
2022/05/28 07:53:41;;;;;;;;;11.67;10.67;;;;;18.43;54.29;102080.91;5075025;28;45541;-70
2022/05/28 07:56:07;;;;;;;;;16.00;14.00;;;;;18.43;53.80;102078.16;5091684;27;47477;-70
2022/05/28 07:58:33;;;;;;;;;16.00;16.00;;;;;18.37;54.26;102084.34;5074461;28;45391;-70
2022/05/28 08:00:59;;;;;;;;;13.67;12.33;;;;;18.09;54.10;102077.34;5084473;27;45442;-70
2022/05/28 08:03:24;;;;;;;;;16.67;16.67;;;;;17.89;54.79;102061.13;5079960;28;45252;-70
2022/05/28 08:05:52;;;;;;;;;18.67;14.00;;;;;18.23;54.22;102074.84;5100046;27;47013;-71
2022/05/28 08:08:19;;;;;;;;;14.00;11.67;;;;;18.36;52.97;102073.50;5079014;27;45389;-72
2022/05/28 08:10:44;;;;;;;;;17.67;15.67;;;;;18.08;54.27;102082.00;5098113;27;45549;-71
2022/05/28 08:13:15;;;;;;;;;20.67;16.00;;;;;18.10;53.49;102073.56;5083894;27;45293;-70
2022/05/28 08:15:43;;;;;;;;;11.00;9.00;;;;;18.23;53.34;102068.47;5079964;27;45462;-70
2022/05/28 08:18:11;;;;;;;;;18.67;15.00;;;;;18.29;53.95;102076.06;5081755;27;45312;-70
2022/05/28 08:23:20;;;;;;;;;19.00;12.00;;;;;18.65;52.91;102083.06;5080733;28;45424;-70
2022/05/28 08:25:47;;;;;;;;;13.00;12.67;;;;;18.74;51.99;102074.81;5084003;28;46237;-70
2022/05/28 08:28:15;;;;;;;;;13.00;12.33;;;;;18.75;52.38;102080.16;5081958;27;45527;-70
2022/05/28 08:30:41;;;;;;;;;22.00;16.33;;;;;18.75;52.16;102082.06;5084371;28;45396;-70
2022/05/28 08:33:08;;;;;;;;;16.33;15.67;;;;;18.56;53.27;102073.06;5083035;28;45428;-70
2022/05/28 08:35:34;;;;;;;;;17.00;14.00;;;;;18.35;52.90;102074.50;5083772;27;45637;-70
2022/05/28 08:38:08;;;;;;;;;17.33;15.00;;;;;17.77;54.08;102067.91;5082865;27;45469;-71
2022/05/28 08:40:43;;;;;;;;;22.00;17.00;;;;;17.50;55.15;102071.66;5082511;28;45408;-70
2022/05/28 08:43:10;;;;;;;;;16.67;13.00;;;;;18.39;53.91;102065.78;5080685;28;45491;-70
2022/05/28 08:45:35;;;;;;;;;13.67;12.67;;;;;19.02;52.66;102062.47;5082438;27;45368;-70
2022/05/28 08:48:03;;;;;;;;;16.00;15.67;;;;;19.23;49.96;102057.28;5071637;28;45605;-69
2022/05/28 08:50:30;;;;;;;;;13.67;12.33;;;;;19.01;50.49;102053.34;5070591;28;45296;-70
2022/05/28 08:53:11;;;;;;;;;14.67;13.33;;;;;19.18;50.60;102054.19;5070134;28;45488;-68
2022/05/28 08:55:43;;;;;;;;;12.67;12.00;;;;;19.74;49.94;102052.41;5080594;27;45422;-69
2022/05/28 08:58:13;;;;;;;;;20.33;18.00;;;;;19.80;49.02;102057.22;5082073;27;45471;-70
2022/05/28 09:00:41;;;;;;;;;13.67;13.67;;;;;19.81;47.37;102053.41;5078844;27;45389;-69
2022/05/28 09:03:17;;;;;;;;;17.00;16.00;;;;;20.03;47.82;102052.66;5082367;27;45344;-70
2022/05/28 09:05:57;;;;;;;;;10.00;10.00;;;;;20.49;47.48;102050.03;5073506;28;47114;-69
2022/05/28 09:08:40;;;;;;;;;12.33;11.00;;;;;20.69;45.33;102045.75;5078508;28;45275;-68
2022/05/28 09:11:11;;;;;;;;;13.00;10.67;;;;;20.47;46.46;102049.34;5080293;27;45258;-70
2022/05/28 09:13:51;;;;;;;;;10.67;10.67;;;;;20.47;45.97;102038.31;5076421;28;45867;-70
2022/05/28 09:16:26;;;;;;;;;13.00;11.67;;;;;20.48;46.18;102031.75;5064886;28;47879;-69
2022/05/28 09:18:54;;;;;;;;;17.67;11.33;;;;;20.55;44.88;102041.03;5080956;27;45353;-69
2022/05/28 09:21:21;;;;;;;;;14.33;11.33;;;;;21.00;44.93;102034.66;5083354;27;45482;-69
2022/05/28 09:23:57;;;;;;;;;13.00;8.00;;;;;21.30;43.93;102027.34;5080199;27;46111;-69
2022/05/28 09:26:57;;;;;;;;;10.67;9.67;;;;;21.40;44.05;102030.69;5082650;27;46654;-69
2022/05/28 09:29:34;;;;;;;;;11.00;7.67;;;;;21.48;43.58;102033.34;5078896;28;45259;-69
2022/05/28 09:32:08;;;;;;;;;9.33;9.33;;;;;21.41;42.89;102032.41;5082094;28;45353;-70
2022/05/28 09:34:59;;;;;;;;;10.33;9.67;;;;;21.07;43.67;102032.00;5083332;28;45465;-69
2022/05/28 09:37:43;;;;;;;;;11.00;7.67;;;;;20.74;44.58;102028.66;5077858;28;48296;-69
2022/05/28 09:40:20;;;;;;;;;11.67;9.33;;;;;20.76;44.12;102029.31;5097676;27;45518;-69
2022/05/28 09:43:18;;;;;;;;;19.00;12.00;;;;;20.42;44.37;102013.16;5079846;27;45235;-69
2022/05/28 09:46:10;;;;;;;;;11.67;9.33;;;;;21.26;44.51;102010.25;5080086;28;45337;-69
2022/05/28 09:48:35;;;;;;;;;7.33;7.33;;;;;22.00;42.63;102004.78;5074654;28;47702;-69
2022/05/28 09:51:00;;;;;;;;;5.33;5.33;;;;;22.62;40.14;101988.47;5079650;27;45301;-69
2022/05/28 09:56:36;;;;;;;;;4.33;2.67;;;;;23.27;38.30;101987.38;5077840;28;45350;-69
2022/05/28 09:59:22;;;;;;;;;9.67;9.67;;;;;23.23;38.77;101981.38;5081468;27;46650;-69
2022/05/28 10:01:54;;;;;;;;;9.00;8.00;;;;;23.56;37.54;101970.53;5077047;28;45349;-69
2022/05/28 10:04:29;;;;;;;;;9.67;7.00;;;;;23.63;37.42;101970.59;5077330;27;45258;-69
2022/05/28 10:06:57;;;;;;;;;8.00;6.00;;;;;24.34;37.18;101968.34;5077579;28;45476;-70
2022/05/28 10:09:34;;;;;;;;;17.67;13.67;;;;;24.52;36.62;101976.94;5072104;27;45544;-69
2022/05/28 10:12:31;;;;;;;;;7.67;7.67;;;;;24.46;36.36;101972.25;5078256;28;45493;-69
2022/05/28 10:15:17;;;;;;;;;6.67;6.67;;;;;23.61;37.06;101970.78;5081385;28;45290;-69
2022/05/28 10:17:57;;;;;;;;;10.00;9.33;;;;;23.18;37.13;101966.41;5078574;28;46373;-69
2022/05/28 10:20:22;;;;;;;;;7.00;7.00;;;;;23.26;37.05;101964.34;5080864;27;45511;-69
2022/05/28 10:22:50;;;;;;;;;8.33;6.67;;;;;22.81;37.49;101968.44;5075196;28;45365;-70
2022/05/28 10:25:37;;;;;;;;;6.67;6.67;;;;;22.32;38.68;101970.25;5098361;27;45436;-69
2022/05/28 10:28:03;;;;;;;;;5.67;5.00;;;;;22.43;38.65;101964.19;5080942;27;45417;-70
2022/05/28 10:30:36;;;;;;;;;7.00;6.00;;;;;22.33;38.94;101969.19;5077897;27;45393;-69
2022/05/28 10:33:08;;;;;;;;;7.33;5.67;;;;;22.48;37.76;101967.25;5080207;27;45425;-69
2022/05/28 10:35:33;;;;;;;;;6.33;6.33;;;;;22.37;38.15;101962.22;5071458;28;45329;-68
2022/05/28 10:38:14;;;;;;;;;7.33;7.33;;;;;22.21;38.83;101971.59;5079848;28;45385;-69
2022/05/28 10:40:54;;;;;;;;;7.33;5.33;;;;;22.85;38.28;101960.59;5082452;28;45495;-68
2022/05/28 10:43:25;;;;;;;;;6.00;6.00;;;;;23.46;36.96;101955.28;5079756;27;45346;-69
2022/05/28 10:45:59;;;;;;;;;6.00;6.00;;;;;23.86;35.73;101954.47;5080794;27;45453;-69
2022/05/28 10:48:46;;;;;;;;;5.33;5.33;;;;;23.53;33.94;101953.44;5082266;28;45448;-69
2022/05/28 10:51:37;;;;;;;;;8.67;6.00;;;;;23.68;35.26;101948.63;5082770;27;46423;-68
2022/05/28 10:54:12;;;;;;;;;3.67;3.00;;;;;23.19;34.61;101945.94;5080295;27;45358;-69
2022/05/28 10:57:13;;;;;;;;;7.33;6.00;;;;;22.80;34.03;101946.47;5084893;27;45412;-69
2022/05/28 10:59:53;;;;;;;;;4.67;4.67;;;;;22.58;34.19;101933.66;5070848;27;45390;-68
2022/05/28 11:02:28;;;;;;;;;6.67;6.67;;;;;22.32;36.38;101948.97;5077054;28;47227;-68
2022/05/28 11:04:56;;;;;;;;;5.67;5.67;;;;;21.65;38.71;101945.53;5077680;28;45562;-69
2022/05/28 11:07:27;;;;;;;;;4.00;4.00;;;;;20.98;39.23;101943.66;5076675;28;45424;-69
2022/05/28 11:10:00;;;;;;;;;4.67;4.67;;;;;20.99;39.06;101934.31;5101547;27;45428;-69
2022/05/28 11:13:08;;;;;;;;;9.33;8.33;;;;;21.59;38.83;101940.78;5084176;27;45582;-69
2022/05/28 11:16:16;;;;;;;;;3.00;1.00;;;;;21.63;36.64;101937.44;5082168;27;45378;-68
2022/05/28 11:19:01;;;;;;;;;2.00;2.00;;;;;21.50;36.38;101931.72;5080711;27;45274;-69
2022/05/28 11:21:52;;;;;;;;;5.33;3.67;;;;;21.33;36.78;101930.22;5077770;28;45305;-67
2022/05/28 11:24:54;;;;;;;;;4.33;4.00;;;;;22.03;37.12;101926.91;5080526;28;48275;-70
2022/05/28 11:27:41;;;;;;;;;9.33;7.33;;;;;22.78;36.50;101932.84;5084118;28;45458;-68
2022/05/28 11:30:07;;;;;;;;;6.00;6.00;;;;;22.86;35.23;101926.28;5078545;28;45554;-68
2022/05/28 11:32:49;;;;;;;;;3.00;3.00;;;;;21.92;35.14;101914.38;5103152;27;45450;-70
2022/05/28 11:35:37;;;;;;;;;4.67;4.67;;;;;22.53;33.77;101918.50;5079117;28;46609;-68
2022/05/28 11:38:34;;;;;;;;;4.00;3.00;;;;;23.27;31.00;101904.19;5084086;28;45422;-68
2022/05/28 11:41:12;;;;;;;;;5.00;5.00;;;;;23.95;30.80;101908.84;5101482;27;45430;-68